createdAt,value
2019-04-28T00:00:48.451Z,99175.91
2019-04-28T00:03:20.785Z,99176.52
2019-04-28T00:05:51.684Z,99173.03
2019-04-28T00:08:22.275Z,99176.70
2019-04-28T00:10:53.393Z,99170.23
2019-04-28T00:13:24.285Z,99171.58
2019-04-28T00:15:55.003Z,99163.95
2019-04-28T00:18:25.789Z,99172.63
2019-04-28T00:21:07.347Z,99166.49
2019-04-28T00:23:51.708Z,99160.27
2019-04-28T00:26:23.871Z,99156.45
2019-04-28T00:28:54.578Z,99159.14
2019-04-28T00:31:25.317Z,99161.84
2019-04-28T00:33:55.941Z,99163.98
2019-04-28T00:36:26.596Z,99157.70
2019-04-28T00:38:57.316Z,99160.02
2019-04-28T00:41:28.072Z,99165.39
2019-04-28T00:43:58.806Z,99154.02
2019-04-28T00:46:31.140Z,99151.84
2019-04-28T00:49:02.218Z,99145.52
2019-04-28T00:51:32.956Z,99149.58
2019-04-28T00:54:03.576Z,99149.91
2019-04-28T00:56:34.292Z,99140.58
2019-04-28T00:59:04.896Z,99128.19
2019-04-28T01:01:40.734Z,99121.36
2019-04-28T01:04:12.350Z,99126.73
2019-04-28T01:06:43.134Z,99130.73
2019-04-28T01:09:13.895Z,99132.91
2019-04-28T01:11:44.651Z,99133.75
2019-04-28T01:14:15.382Z,99135.34
2019-04-28T01:16:53.779Z,99140.83
2019-04-28T01:19:30.136Z,99136.91
2019-04-28T01:22:13.663Z,99140.44
2019-04-28T01:24:44.352Z,99142.43
2019-04-28T01:27:20.379Z,99138.52
2019-04-28T01:29:52.877Z,99127.97
2019-04-28T01:32:40.518Z,99102.19
2019-04-28T01:35:11.322Z,99085.70
2019-04-28T01:37:41.936Z,99081.98
2019-04-28T01:40:12.779Z,99077.58
2019-04-28T01:42:43.450Z,99080.89
2019-04-28T01:45:14.648Z,99068.19
2019-04-28T01:47:45.320Z,99064.88
2019-04-28T01:50:16.161Z,99058.02
2019-04-28T01:52:46.890Z,99060.58
2019-04-28T01:55:17.594Z,99051.03
2019-04-28T01:57:49.800Z,99059.79
2019-04-28T02:00:25.265Z,99048.45
2019-04-28T02:02:55.063Z,99046.98
2019-04-28T02:05:25.742Z,99048.84
2019-04-28T02:07:56.412Z,99040.36
2019-04-28T02:10:27.033Z,99043.48
2019-04-28T02:12:57.744Z,99050.49
2019-04-28T02:15:30.198Z,99047.80
2019-04-28T02:18:01.078Z,99050.47
2019-04-28T02:20:31.762Z,99054.28
2019-04-28T02:23:04.008Z,99045.67
2019-04-28T02:25:34.807Z,99045.39
2019-04-28T02:28:05.418Z,99041.75
2019-04-28T02:30:45.372Z,99038.05
2019-04-28T02:33:11.141Z,99043.06
2019-04-28T02:35:42.339Z,99047.50
2019-04-28T02:38:13.126Z,99042.45
2019-04-28T02:40:43.905Z,99038.43
2019-04-28T02:43:14.664Z,99040.50
2019-04-28T02:45:46.236Z,99045.19
2019-04-28T02:48:21.054Z,99038.84
2019-04-28T02:50:52.807Z,99041.56
2019-04-28T02:53:25.020Z,99048.94
2019-04-28T02:55:55.679Z,99045.66
2019-04-28T02:58:26.281Z,99045.66
2019-04-28T03:01:06.209Z,99046.83
2019-04-28T03:03:30.833Z,99044.86
2019-04-28T03:06:01.861Z,99045.30
2019-04-28T03:08:32.505Z,99043.95
2019-04-28T03:11:03.096Z,99041.81
2019-04-28T03:13:33.866Z,99043.95
2019-04-28T03:16:04.754Z,99047.47
2019-04-28T03:18:35.350Z,99046.20
2019-04-28T03:21:06.091Z,99050.45
2019-04-28T03:23:36.654Z,99050.19
2019-04-28T03:26:17.738Z,99050.22
2019-04-28T03:28:51.376Z,99049.42
2019-04-28T03:32:04.070Z,99051.62
2019-04-28T03:34:12.912Z,99047.48
2019-04-28T03:36:44.177Z,99046.77
2019-04-28T03:39:14.688Z,99045.91
2019-04-28T03:41:45.412Z,99044.02
2019-04-28T03:44:16.867Z,99045.44
2019-04-28T03:46:51.220Z,99048.50
2019-04-28T03:49:32.156Z,99053.55
2019-04-28T03:52:06.707Z,99059.27
2019-04-28T03:54:37.404Z,99062.11
2019-04-28T03:57:11.123Z,99057.91
2019-04-28T03:59:43.560Z,99055.00
2019-04-28T04:02:13.698Z,99058.41
2019-04-28T04:04:46.173Z,99056.56
2019-04-28T04:07:17.222Z,99052.61
2019-04-28T04:10:01.567Z,99056.42
2019-04-28T04:12:46.226Z,99054.59
2019-04-28T04:15:25.460Z,99058.25
2019-04-28T04:18:06.908Z,99055.34
2019-04-28T04:20:37.627Z,99062.70
2019-04-28T04:23:11.076Z,99062.97
2019-04-28T04:25:41.642Z,99062.79
2019-04-28T04:28:12.566Z,99072.45
2019-04-28T04:30:43.365Z,99076.89
2019-04-28T04:33:14.063Z,99075.20
2019-04-28T04:35:44.580Z,99078.61
2019-04-28T04:38:15.339Z,99079.16
2019-04-28T04:40:46.057Z,99075.31
2019-04-28T04:43:16.739Z,99074.45
2019-04-28T04:45:50.125Z,99068.62
2019-04-28T04:48:21.569Z,99072.97
2019-04-28T04:50:52.522Z,99067.14
2019-04-28T04:53:23.473Z,99071.88
2019-04-28T04:55:54.367Z,99069.53
2019-04-28T04:58:24.984Z,99069.17
2019-04-28T05:01:04.149Z,99065.06
2019-04-28T05:03:39.775Z,99059.97
2019-04-28T05:06:29.974Z,99073.30
2019-04-28T05:09:00.588Z,99066.56
2019-04-28T05:11:32.810Z,99075.02
2019-04-28T05:14:07.551Z,99076.33
2019-04-28T05:16:39.844Z,99073.58
2019-04-28T05:19:10.773Z,99078.74
2019-04-28T05:21:41.426Z,99077.84
2019-04-28T05:24:25.939Z,99082.14
2019-04-28T05:26:56.542Z,99067.81
2019-04-28T05:29:28.128Z,99071.98
2019-04-28T05:32:02.285Z,99076.44
2019-04-28T05:34:31.189Z,99073.61
2019-04-28T05:37:01.887Z,99074.13
2019-04-28T05:39:32.437Z,99083.92
2019-04-28T05:42:03.008Z,99086.01
2019-04-28T05:44:33.812Z,99083.17
2019-04-28T05:47:04.399Z,99081.52
2019-04-28T05:49:36.687Z,99079.97
2019-04-28T05:52:25.421Z,99085.72
2019-04-28T05:54:57.649Z,99083.17
2019-04-28T05:57:35.573Z,99081.11
2019-04-28T06:00:11.265Z,99084.42
2019-04-28T06:02:55.492Z,99090.55
2019-04-28T06:05:20.008Z,99082.41
2019-04-28T06:07:52.259Z,99085.25
2019-04-28T06:10:23.418Z,99084.27
2019-04-28T06:12:54.166Z,99081.88
2019-04-28T06:15:26.308Z,99084.99
2019-04-28T06:17:56.899Z,99081.53
2019-04-28T06:20:27.610Z,99079.98
2019-04-28T06:22:58.333Z,99079.80
2019-04-28T06:25:29.234Z,99078.36
2019-04-28T06:27:59.968Z,99074.39
2019-04-28T06:30:30.669Z,99071.30
2019-04-28T06:33:08.206Z,99075.47
2019-04-28T06:35:34.165Z,99075.64
2019-04-28T06:38:04.799Z,99077.63
2019-04-28T06:40:35.454Z,99081.33
2019-04-28T06:43:06.045Z,99082.27
2019-04-28T06:45:36.747Z,99085.22
2019-04-28T06:48:07.490Z,99088.22
2019-04-28T06:50:38.229Z,99086.72
2019-04-28T06:53:09.445Z,99087.05
2019-04-28T06:55:40.098Z,99088.95
2019-04-28T06:58:10.684Z,99082.77
2019-04-28T07:00:41.477Z,99081.11
2019-04-28T07:03:22.706Z,99080.84
2019-04-28T07:05:44.896Z,99085.31
2019-04-28T07:08:15.705Z,99091.88
2019-04-28T07:10:46.375Z,99080.64
2019-04-28T07:13:17.092Z,99074.44
2019-04-28T07:15:47.693Z,99056.59
2019-04-28T07:18:18.596Z,99060.86
2019-04-28T07:21:00.400Z,99050.49
2019-04-28T07:23:32.166Z,99054.26
2019-04-28T07:26:02.816Z,99055.98
2019-04-28T07:28:33.909Z,99056.59
2019-04-28T07:31:04.724Z,99055.70
2019-04-28T07:33:36.357Z,99056.47
2019-04-28T07:36:07.190Z,99055.75
2019-04-28T07:38:37.924Z,99059.29
2019-04-28T07:41:08.599Z,99069.09
2019-04-28T07:43:39.298Z,99065.61
2019-04-28T07:46:10.015Z,99064.11
2019-04-28T07:48:40.683Z,99066.62
2019-04-28T07:51:11.392Z,99058.45
2019-04-28T07:53:46.861Z,99054.63
2019-04-28T07:56:19.083Z,99049.12
2019-04-28T07:58:49.713Z,99058.70
2019-04-28T08:01:25.784Z,99051.17
2019-04-28T08:03:57.620Z,99051.31
2019-04-28T08:06:28.612Z,99053.43
2019-04-28T08:09:02.297Z,99055.52
2019-04-28T08:11:33.288Z,99050.66
2019-04-28T08:14:04.229Z,99048.41
2019-04-28T08:16:36.143Z,99048.13
2019-04-28T08:19:06.661Z,99037.38
2019-04-28T08:21:37.375Z,99036.80
2019-04-28T08:24:07.954Z,99033.50
2019-04-28T08:26:38.669Z,99027.52
2019-04-28T08:29:09.262Z,99024.90
2019-04-28T08:31:47.621Z,99026.73
2019-04-28T08:34:21.005Z,99025.48
2019-04-28T08:36:51.752Z,99027.09
2019-04-28T08:39:25.072Z,99035.38
2019-04-28T08:41:54.836Z,99030.36
2019-04-28T08:44:25.443Z,99033.63
2019-04-28T08:46:57.012Z,99025.63
2019-04-28T08:49:35.161Z,99032.27
2019-04-28T08:52:05.857Z,99031.63
2019-04-28T08:54:36.466Z,99032.78
2019-04-28T08:57:10.161Z,99027.98
2019-04-28T08:59:40.822Z,99030.88
2019-04-28T09:02:11.664Z,99033.28
2019-04-28T09:04:42.274Z,99026.15
2019-04-28T09:07:13.047Z,99017.73
2019-04-28T09:09:43.795Z,99023.45
2019-04-28T09:12:14.491Z,99021.80
2019-04-28T09:14:45.097Z,99019.39
2019-04-28T09:17:15.785Z,99017.58
2019-04-28T09:19:46.391Z,99014.41
2019-04-28T09:22:18.202Z,99014.34
2019-04-28T09:24:48.937Z,99020.26
2019-04-28T09:27:19.616Z,99019.38
2019-04-28T09:29:50.184Z,99020.17
2019-04-28T09:32:20.904Z,99019.91
2019-04-28T09:34:56.229Z,99015.89
2019-04-28T09:37:28.507Z,99022.49
2019-04-28T09:41:14.506Z,99022.63
2019-04-28T09:43:05.526Z,99025.82
2019-04-28T09:45:37.687Z,99021.66
2019-04-28T09:48:08.413Z,99023.44
2019-04-28T09:50:39.132Z,99023.18
2019-04-28T09:53:09.870Z,99018.48
2019-04-28T09:55:40.685Z,99025.52
2019-04-28T09:58:13.298Z,99024.30
2019-04-28T10:00:44.001Z,99021.02
2019-04-28T10:03:14.762Z,99028.58
2019-04-28T10:05:46.068Z,99036.98
2019-04-28T10:08:16.738Z,99039.66
2019-04-28T10:10:47.434Z,99033.40
2019-04-28T10:13:17.998Z,99034.64
2019-04-28T10:15:48.793Z,99036.73
2019-04-28T10:18:19.448Z,99039.63
2019-04-28T10:20:50.189Z,99034.05
2019-04-28T10:23:21.010Z,99040.11
2019-04-28T10:25:51.630Z,99040.66
2019-04-28T10:28:22.285Z,99044.02
2019-04-28T10:30:52.895Z,99033.86
2019-04-28T10:33:23.672Z,99038.15
2019-04-28T10:35:54.358Z,99033.88
2019-04-28T10:38:25.059Z,99029.58
2019-04-28T10:40:57.200Z,99032.31
2019-04-28T10:43:27.917Z,99028.84
2019-04-28T10:45:58.782Z,99031.47
2019-04-28T10:48:29.423Z,99025.02
2019-04-28T10:51:01.301Z,99021.59
2019-04-28T10:53:32.010Z,99033.66
2019-04-28T10:56:02.594Z,99025.16
2019-04-28T10:58:33.258Z,99022.70
2019-04-28T11:01:03.967Z,99014.79
2019-04-28T11:03:34.798Z,99018.86
2019-04-28T11:06:05.409Z,99017.88
2019-04-28T11:08:43.336Z,99010.59
2019-04-28T11:11:15.564Z,99017.56
2019-04-28T11:13:46.230Z,99019.91
2019-04-28T11:16:18.407Z,99025.05
2019-04-28T11:18:48.973Z,99033.54
2019-04-28T11:21:19.658Z,99023.25
2019-04-28T11:23:51.772Z,99031.21
2019-04-28T11:26:26.607Z,99033.31
2019-04-28T11:28:57.593Z,99033.59
2019-04-28T11:31:28.304Z,99025.31
2019-04-28T11:34:06.937Z,99032.71
2019-04-28T11:36:37.874Z,99027.53
2019-04-28T11:39:10.043Z,99026.83
2019-04-28T11:41:40.711Z,99022.41
2019-04-28T11:44:11.619Z,99023.41
2019-04-28T11:46:42.266Z,99014.44
2019-04-28T11:49:13.292Z,99013.51
2019-04-28T11:51:43.936Z,99002.89
2019-04-28T11:54:14.554Z,99002.61
2019-04-28T11:56:45.166Z,99000.24
2019-04-28T11:59:16.237Z,98992.64
2019-04-28T12:01:47.092Z,98985.55
2019-04-28T12:04:19.016Z,98987.17
2019-04-28T12:06:50.654Z,98981.45
2019-04-28T12:09:22.978Z,98979.27
2019-04-28T12:11:55.350Z,98974.72
2019-04-28T12:14:30.347Z,98970.27
2019-04-28T12:17:02.575Z,98963.87
2019-04-28T12:19:44.231Z,98965.73
2019-04-28T12:22:15.024Z,98963.95
2019-04-28T12:24:45.630Z,98958.05
2019-04-28T12:27:16.354Z,98949.57
2019-04-28T12:29:47.044Z,98953.50
2019-04-28T12:32:17.702Z,98953.45
2019-04-28T12:34:48.475Z,98947.00
2019-04-28T12:37:19.137Z,98944.89
2019-04-28T12:39:51.248Z,98940.91
2019-04-28T12:42:21.858Z,98943.84
2019-04-28T12:44:52.464Z,98937.91
2019-04-28T12:47:23.112Z,98936.26
2019-04-28T12:49:55.527Z,98936.81
2019-04-28T12:52:26.200Z,98931.38
2019-04-28T12:54:56.894Z,98930.58
2019-04-28T12:57:27.526Z,98945.80
2019-04-28T12:59:59.699Z,98937.21
2019-04-28T13:02:31.878Z,98945.69
2019-04-28T13:05:06.759Z,98944.70
2019-04-28T13:07:38.809Z,98954.02
2019-04-28T13:10:10.389Z,98950.31
2019-04-28T13:12:41.210Z,98943.20
2019-04-28T13:15:11.931Z,98944.41
2019-04-28T13:17:44.131Z,98940.28
2019-04-28T13:20:14.934Z,98933.14
2019-04-28T13:22:45.517Z,98932.81
2019-04-28T13:25:16.242Z,98928.09
2019-04-28T13:27:47.104Z,98929.85
2019-04-28T13:30:19.657Z,98919.89
2019-04-28T13:32:50.344Z,98921.70
2019-04-28T13:35:20.967Z,98917.89
2019-04-28T13:37:51.635Z,98917.94
2019-04-28T13:40:26.662Z,98911.81
2019-04-28T13:42:57.281Z,98914.44
2019-04-28T13:45:29.627Z,98905.43
2019-04-28T13:48:00.268Z,98904.33
2019-04-28T13:50:32.583Z,98897.41
2019-04-28T13:53:03.229Z,98900.12
2019-04-28T13:55:38.482Z,98891.77
2019-04-28T13:58:10.233Z,98893.81
2019-04-28T14:00:57.661Z,98898.41
2019-04-28T14:03:29.924Z,98900.56
2019-04-28T14:06:05.282Z,98904.08
2019-04-28T14:08:36.190Z,98902.38
2019-04-28T14:11:06.795Z,98899.98
2019-04-28T14:13:37.515Z,98894.91
2019-04-28T14:16:08.173Z,98897.16
2019-04-28T14:18:38.918Z,98893.06
2019-04-28T14:21:09.511Z,98898.71
2019-04-28T14:23:40.212Z,98900.07
2019-04-28T14:26:11.042Z,98892.95
2019-04-28T14:28:41.755Z,98898.53
2019-04-28T14:31:12.595Z,98896.08
2019-04-28T14:33:43.427Z,98892.98
2019-04-28T14:36:17.025Z,98893.14
2019-04-28T14:38:47.763Z,98891.78
2019-04-28T14:41:18.576Z,98897.48
2019-04-28T14:43:49.216Z,98895.47
2019-04-28T14:46:19.812Z,98896.00
2019-04-28T14:48:50.569Z,98890.13
2019-04-28T14:51:21.338Z,98898.84
2019-04-28T14:53:51.995Z,98887.52
2019-04-28T14:56:22.761Z,98877.08
2019-04-28T14:58:53.508Z,98887.37
2019-04-28T15:01:37.903Z,98884.04
2019-04-28T15:04:20.862Z,98883.59
2019-04-28T15:07:09.412Z,98881.13
2019-04-28T15:09:59.859Z,98882.59
2019-04-28T15:12:30.594Z,98883.73
2019-04-28T15:15:01.372Z,98881.86
2019-04-28T15:17:32.033Z,98877.80
2019-04-28T15:20:02.831Z,98871.47
2019-04-28T15:22:33.710Z,98872.47
2019-04-28T15:25:05.214Z,98865.06
2019-04-28T15:27:35.800Z,98863.84
2019-04-28T15:30:08.407Z,98863.33
2019-04-28T15:32:41.790Z,98866.84
2019-04-28T15:35:13.965Z,98865.09
2019-04-28T15:37:44.958Z,98861.52
2019-04-28T15:40:16.656Z,98859.75
2019-04-28T15:42:47.405Z,98864.70
2019-04-28T15:45:18.344Z,98864.48
2019-04-28T15:47:48.999Z,98863.41
2019-04-28T15:50:19.653Z,98860.56
2019-04-28T15:52:50.402Z,98862.62
2019-04-28T15:55:22.617Z,98856.30
2019-04-28T15:57:53.389Z,98859.66
2019-04-28T16:00:24.025Z,98856.52
2019-04-28T16:02:55.008Z,98854.66
2019-04-28T16:05:25.669Z,98850.20
2019-04-28T16:07:56.301Z,98849.95
2019-04-28T16:10:27.202Z,98857.38
2019-04-28T16:12:57.948Z,98853.13
2019-04-28T16:15:28.578Z,98855.84
2019-04-28T16:17:59.678Z,98851.88
2019-04-28T16:20:30.289Z,98858.14
2019-04-28T16:23:01.127Z,98852.75
2019-04-28T16:25:31.973Z,98855.19
2019-04-28T16:28:02.704Z,98857.58
2019-04-28T16:30:33.460Z,98859.79
2019-04-28T16:33:04.375Z,98866.00
2019-04-28T16:35:36.760Z,98866.61
2019-04-28T16:38:07.469Z,98864.75
2019-04-28T16:40:46.165Z,98872.17
2019-04-28T16:43:27.127Z,98876.30
2019-04-28T16:45:57.806Z,98874.70
2019-04-28T16:48:29.127Z,98884.31
2019-04-28T16:51:01.483Z,98889.30
2019-04-28T16:53:32.235Z,98885.91
2019-04-28T16:56:08.446Z,98891.46
2019-04-28T16:58:57.980Z,98891.60
2019-04-28T17:01:36.185Z,98896.81
2019-04-28T17:04:06.970Z,98899.09
2019-04-28T17:06:37.570Z,98905.94
2019-04-28T17:09:08.381Z,98907.70
2019-04-28T17:11:39.124Z,98907.19
2019-04-28T17:14:09.769Z,98911.23
2019-04-28T17:16:40.438Z,98912.86
2019-04-28T17:19:12.319Z,98917.47
2019-04-28T17:21:44.112Z,98920.34
2019-04-28T17:24:14.789Z,98924.63
2019-04-28T17:26:46.317Z,98926.98
2019-04-28T17:29:19.661Z,98932.52
2019-04-28T17:31:50.398Z,98933.08
2019-04-28T17:34:21.051Z,98932.62
2019-04-28T17:36:51.680Z,98938.70
2019-04-28T17:39:24.074Z,98939.91
2019-04-28T17:41:54.795Z,98943.77
2019-04-28T17:44:28.435Z,98950.45
2019-04-28T17:47:02.449Z,98953.84
2019-04-28T17:49:37.460Z,98958.11
2019-04-28T17:52:09.318Z,98954.30
2019-04-28T17:54:40.315Z,98961.41
2019-04-28T17:57:11.174Z,98970.03
2019-04-28T17:59:47.076Z,98975.11
2019-04-28T18:02:23.615Z,98979.55
2019-04-28T18:04:59.010Z,98981.36
2019-04-28T18:07:31.523Z,98982.56
2019-04-28T18:10:02.252Z,98976.57
2019-04-28T18:12:32.973Z,98981.93
2019-04-28T18:15:06.574Z,98986.77
2019-04-28T18:17:41.904Z,98986.08
2019-04-28T18:20:12.911Z,98992.53
2019-04-28T18:22:43.635Z,98990.90
2019-04-28T18:25:15.717Z,98991.70
2019-04-28T18:27:47.740Z,98994.34
2019-04-28T18:30:20.645Z,98996.86
2019-04-28T18:33:01.665Z,98991.61
2019-04-28T18:35:33.881Z,98994.77
2019-04-28T18:38:08.758Z,98996.95
2019-04-28T18:40:41.044Z,99000.21
2019-04-28T18:43:19.542Z,98991.94
2019-04-28T18:45:50.412Z,98997.12
2019-04-28T18:48:22.760Z,98996.55
2019-04-28T18:50:53.630Z,98994.47
2019-04-28T18:53:24.387Z,98995.80
2019-04-28T18:55:54.973Z,98992.91
2019-04-28T18:58:25.558Z,98997.47
2019-04-28T19:01:03.805Z,98991.58
2019-04-28T19:03:34.486Z,98993.66
2019-04-28T19:06:06.746Z,98991.87
2019-04-28T19:08:48.866Z,98992.09
2019-04-28T19:11:15.508Z,98989.13
2019-04-28T19:13:50.743Z,98991.75
2019-04-28T19:16:32.118Z,98989.34
2019-04-28T19:19:07.499Z,98986.94
2019-04-28T19:21:38.637Z,98989.41
2019-04-28T19:24:09.488Z,98986.26
2019-04-28T19:26:40.396Z,98988.95
2019-04-28T19:29:11.149Z,98988.22
2019-04-28T19:31:43.471Z,98987.33
2019-04-28T19:34:14.201Z,98988.47
2019-04-28T19:36:44.813Z,98988.37
2019-04-28T19:39:15.433Z,98985.05
2019-04-28T19:41:46.169Z,98983.81
2019-04-28T19:44:16.964Z,98987.91
2019-04-28T19:46:47.916Z,98990.00
2019-04-28T19:49:18.789Z,98988.83
2019-04-28T19:51:49.465Z,98999.98
2019-04-28T19:54:21.716Z,98997.09
2019-04-28T19:57:00.011Z,98999.06
2019-04-28T19:59:38.539Z,99001.87
2019-04-28T20:02:09.221Z,98998.72
2019-04-28T20:04:39.988Z,98998.75
2019-04-28T20:07:10.740Z,98998.92
2019-04-28T20:09:41.400Z,99000.61
2019-04-28T20:12:12.121Z,98998.61
2019-04-28T20:14:42.806Z,99000.41
2019-04-28T20:17:13.436Z,98999.63
2019-04-28T20:19:44.213Z,98999.78
2019-04-28T20:22:14.917Z,99003.88
2019-04-28T20:24:47.224Z,99003.30
2019-04-28T20:27:17.978Z,99003.65
2019-04-28T20:29:48.611Z,99005.00
2019-04-28T20:32:19.303Z,99006.66
2019-04-28T20:34:50.010Z,99015.31
2019-04-28T20:37:22.275Z,99011.94
2019-04-28T20:40:06.647Z,99007.09
2019-04-28T20:42:54.388Z,99011.59
2019-04-28T20:45:27.664Z,99010.81
2019-04-28T20:47:58.321Z,99008.23
2019-04-28T20:50:29.123Z,99014.84
2019-04-28T20:52:59.919Z,99007.31
2019-04-28T20:55:32.293Z,99018.64
2019-04-28T20:58:02.894Z,99021.64
2019-04-28T21:00:33.721Z,99016.20
2019-04-28T21:03:04.663Z,99026.73
2019-04-28T21:05:35.252Z,99016.09
2019-04-28T21:08:05.859Z,99027.85
2019-04-28T21:10:38.083Z,99032.56
2019-04-28T21:13:09.069Z,99033.30
2019-04-28T21:15:39.985Z,99033.30
2019-04-28T21:18:10.747Z,99035.38
2019-04-28T21:20:41.514Z,99034.64
2019-04-28T21:23:12.252Z,99036.38
2019-04-28T21:25:42.992Z,99034.94
2019-04-28T21:28:13.745Z,99038.75
2019-04-28T21:30:44.475Z,99030.09
2019-04-28T21:33:15.090Z,99033.46
2019-04-28T21:35:46.195Z,99036.89
2019-04-28T21:38:16.840Z,99041.31
2019-04-28T21:40:47.493Z,99036.89
2019-04-28T21:43:22.540Z,99039.13
2019-04-28T21:46:00.942Z,99038.52
2019-04-28T21:48:33.133Z,99033.08
2019-04-28T21:51:03.972Z,99036.50
2019-04-28T21:53:34.878Z,99031.95
2019-04-28T21:56:05.813Z,99030.23
2019-04-28T21:58:36.449Z,99033.59
2019-04-28T22:01:08.788Z,99041.09
2019-04-28T22:03:39.482Z,99036.60
2019-04-28T22:06:11.848Z,99031.13
2019-04-28T22:08:42.798Z,99031.57
2019-04-28T22:11:13.374Z,99031.28
2019-04-28T22:13:44.185Z,99031.95
2019-04-28T22:16:14.881Z,99027.53
2019-04-28T22:18:45.605Z,99024.49
2019-04-28T22:21:16.366Z,99023.66
2019-04-28T22:23:48.678Z,99023.27
2019-04-28T22:26:20.813Z,99021.80
2019-04-28T22:28:51.499Z,99021.19
2019-04-28T22:31:22.126Z,99018.88
2019-04-28T22:33:52.872Z,99018.95
2019-04-28T22:36:23.471Z,99022.47
2019-04-28T22:38:54.067Z,99014.17
2019-04-28T22:41:24.868Z,99011.09
2019-04-28T22:43:56.330Z,99004.95
2019-04-28T22:46:27.152Z,99006.67
2019-04-28T22:48:59.331Z,99000.63
2019-04-28T22:51:30.049Z,98997.64
2019-04-28T22:54:03.593Z,98999.73
2019-04-28T22:56:35.860Z,98993.38
2019-04-28T22:59:08.273Z,98988.35
2019-04-28T23:01:40.632Z,98998.83
2019-04-28T23:04:15.795Z,98997.41
2019-04-28T23:06:46.531Z,98994.84
2019-04-28T23:09:18.897Z,98991.03
2019-04-28T23:11:49.511Z,98995.00
2019-04-28T23:14:20.230Z,98993.72
2019-04-28T23:16:51.024Z,98991.58
2019-04-28T23:19:23.176Z,98993.80
2019-04-28T23:22:14.282Z,98992.00
2019-04-28T23:24:44.921Z,98989.59
2019-04-28T23:27:15.485Z,98998.84
2019-04-28T23:29:46.171Z,99003.28
2019-04-28T23:32:16.879Z,98995.30
2019-04-28T23:34:47.471Z,98997.59
2019-04-28T23:37:18.196Z,98993.05
2019-04-28T23:39:48.804Z,98994.13
2019-04-28T23:42:25.661Z,98999.81
2019-04-28T23:44:56.501Z,98995.97
2019-04-28T23:47:27.279Z,99000.44
2019-04-28T23:49:57.972Z,99001.69
2019-04-28T23:52:30.136Z,98998.67
2019-04-28T23:55:02.355Z,98994.91
2019-04-28T23:57:33.552Z,98996.83
